Aeroporto :
LOGIN :

Iscrizione | Disclaimer

   EN    FR    IT 

 










Sommario :    VFR   VFR Marginale   IFR   IFR Intensivo   IFR Molto Intensivo
Visibilità : 
Base nubi : 
>= 8 km
>= 3000ft
5 / 8 km
1000 / 3000 ft
1500m / 5 km
500 / 1000 ft
800 / 1500m
200 / 500 ft
< 800m
< 200 ft
Simboli :   Temporali  Nebbia  Neve Forte  Precipitazioni Forti  Vento > 20 kt
SIGMETs :   Varie  Temporali  Ghiacco  Turbolenza  Onda orograficha  Ceneri Vulcaniche






- Altitudine del aeroporto : 141 ft
- Codice IATA : SKS


EKSP - Srydstrup Vojens

ULTIMO METAR :
  • 171220Z 17007KT CAVOK 06/04 Q1014 RMK BKN200

METARs OBSOLETI :
  • 171150Z 19004KT CAVOK 05/03 Q1014 RMK BKN200
  • 171120Z 17006KT CAVOK 05/03 Q1014 RMK FEW200
  • 171050Z 18007KT CAVOK 05/03 Q1014 RMK FEW200
  • 171020Z 20006KT CAVOK 05/03 Q1014 RMK FEW200
  • 170950Z 19007KT CAVOK 05/03 Q1014 RMK FEW200

TAF TAF EKSP
Valido dal 17 a 12 ore il 18 a 12 ore UTC


171123Z 1712/1812 20012KT 9999 SCT018 BKN150
TEMPO 1715/1721 3000 BR
BECMG 1718/1721 05010KT
BECMG 1721/1724 7000 -RADZ BKN012
TEMPO 1800/1803 4000 BR BKN005
TEMPO 1803/1810 06012G22KT 2500 -RADZ BKN003



MetMap, La meteo Aeronautica in un colpo d'occhio ! - Copyright ORBIFLY Dicembre 2007 - Disclaimer

ORBIFLY MET'MAP TEAM :

Programmazione e sviluppo : Alexandra Zaïnal
Concezione e sviluppo : Baudouin d'Aumeries
Co-Programmazione e sviluppo : Marc-Olivier Méhu
Supporto tecnico e logistico : Manuel Goepfert
Aiuto per la traduzione : Arnaldo La Scala

Contatto : metmap@orbifly.com




FONTI E CREDITI :

   NOAA